Time;durP1;ratioP1;P1;durP2;ratioP2;P2;SDS_P1;SDS_P2;PMS_P1;PMS_P2;Temp;Humidity;BMP_temperature;BMP_pressure;BME280_temperature;BME280_humidity;BME280_pressure;Samples;Min_cycle;Max_cycle;Signal;HPM_P1;HPM_P2
2021/05/29 00:01:51;;;;;;;1.13;0.77;;;23.00;44.80;;;;;;5014057;28;20044;-68
2021/05/29 00:04:16;;;;;;;2.00;0.70;;;23.00;44.80;;;;;;5013481;28;20037;-67
2021/05/29 00:06:42;;;;;;;3.67;1.42;;;22.90;44.80;;;;;;5012850;28;20499;-69
2021/05/29 00:09:08;;;;;;;0.70;0.70;;;23.00;44.70;;;;;;5009400;28;20030;-67
2021/05/29 00:11:34;;;;;;;2.35;1.00;;;23.00;44.70;;;;;;5009141;28;20040;-67
2021/05/29 00:14:00;;;;;;;0.60;0.60;;;22.90;44.60;;;;;;5010040;28;20147;-68
2021/05/29 00:16:26;;;;;;;0.70;0.70;;;22.90;44.70;;;;;;5011814;28;20098;-68
2021/05/29 00:18:51;;;;;;;2.50;0.63;;;22.90;44.50;;;;;;5011251;28;20029;-67
2021/05/29 00:21:17;;;;;;;0.70;0.70;;;22.90;44.50;;;;;;5013088;28;20044;-67
2021/05/29 00:23:44;;;;;;;0.68;0.68;;;22.90;45.00;;;;;;5011500;28;20088;-67
2021/05/29 00:26:09;;;;;;;0.68;0.60;;;22.90;44.40;;;;;;5010369;28;20320;-67
2021/05/29 00:28:36;;;;;;;0.80;0.80;;;22.90;44.30;;;;;;5010624;28;20033;-67
2021/05/29 00:31:02;;;;;;;0.52;0.52;;;22.90;44.30;;;;;;5011617;28;20504;-67
2021/05/29 00:33:28;;;;;;;0.80;0.80;;;22.90;44.30;;;;;;5013685;28;20168;-67
2021/05/29 00:35:54;;;;;;;0.80;0.80;;;22.90;44.20;;;;;;5012582;28;20583;-67
2021/05/29 00:38:21;;;;;;;0.70;0.70;;;22.90;44.30;;;;;;5010078;28;20088;-67
2021/05/29 00:40:47;;;;;;;0.57;0.57;;;22.90;44.10;;;;;;5010429;28;20413;-67
2021/05/29 00:43:13;;;;;;;1.67;0.77;;;22.90;44.10;;;;;;5010779;28;20030;-67
2021/05/29 00:45:39;;;;;;;1.02;0.70;;;22.90;44.00;;;;;;5010601;28;20041;-66
2021/05/29 00:48:05;;;;;;;0.70;0.70;;;22.90;44.10;;;;;;5008244;28;20021;-66
2021/05/29 00:50:33;;;;;;;1.25;1.15;;;22.90;44.00;;;;;;5010562;28;20057;-67
2021/05/29 00:53:00;;;;;;;0.80;0.80;;;22.80;44.00;;;;;;5007355;28;20147;-67
2021/05/29 00:55:26;;;;;;;0.70;0.70;;;22.90;44.00;;;;;;5013796;28;20113;-67
2021/05/29 00:57:53;;;;;;;0.70;0.70;;;22.90;43.90;;;;;;5013178;28;20034;-67
2021/05/29 01:00:21;;;;;;;0.60;0.60;;;22.80;44.40;;;;;;5013603;28;20026;-67
2021/05/29 01:02:49;;;;;;;0.70;0.70;;;22.80;43.80;;;;;;5009044;28;20025;-67
2021/05/29 01:05:18;;;;;;;1.13;0.70;;;22.80;43.70;;;;;;5010659;28;20050;-66
2021/05/29 01:07:54;;;;;;;0.73;0.60;;;22.80;43.70;;;;;;5009151;28;20033;-67
2021/05/29 01:10:22;;;;;;;0.65;0.65;;;22.80;43.70;;;;;;5009557;28;20113;-67
2021/05/29 01:12:48;;;;;;;1.15;0.68;;;22.80;43.60;;;;;;5008671;28;20038;-66
2021/05/29 01:15:18;;;;;;;0.63;0.63;;;22.80;43.60;;;;;;5008477;28;20041;-67
2021/05/29 01:17:44;;;;;;;0.60;0.60;;;22.80;43.60;;;;;;5008549;28;20030;-67
2021/05/29 01:20:11;;;;;;;0.70;0.70;;;22.80;43.50;;;;;;5009873;28;20499;-67
2021/05/29 01:22:43;;;;;;;1.02;0.70;;;22.80;43.50;;;;;;5008012;28;20099;-67
2021/05/29 01:25:39;;;;;;;0.57;0.57;;;22.80;43.40;;;;;;5011756;28;20042;-67
2021/05/29 01:28:15;;;;;;;0.40;0.40;;;22.80;43.40;;;;;;5011837;28;20042;-67
2021/05/29 01:30:47;;;;;;;0.55;0.55;;;22.80;43.50;;;;;;5013197;28;20563;-67
2021/05/29 01:33:15;;;;;;;0.50;0.50;;;22.80;43.40;;;;;;5010455;28;20343;-66
2021/05/29 01:35:42;;;;;;;0.52;0.52;;;22.80;43.30;;;;;;5009363;28;20033;-67
2021/05/29 01:38:09;;;;;;;0.60;0.60;;;22.80;43.30;;;;;;5008041;28;20030;-67
2021/05/29 01:40:34;;;;;;;0.63;0.63;;;22.80;43.30;;;;;;5006227;28;20029;-67
2021/05/29 01:43:02;;;;;;;0.65;0.50;;;22.80;43.20;;;;;;5009567;28;20483;-67
2021/05/29 01:45:29;;;;;;;0.70;0.70;;;22.80;43.10;;;;;;5009378;28;20076;-67
2021/05/29 01:47:55;;;;;;;0.50;0.50;;;22.70;43.10;;;;;;5011334;28;20025;-67
2021/05/29 01:50:22;;;;;;;0.50;0.50;;;22.70;43.20;;;;;;5010074;28;20511;-67
2021/05/29 01:52:55;;;;;;;0.52;0.52;;;22.70;43.00;;;;;;5008345;28;20054;-67
2021/05/29 01:55:23;;;;;;;0.60;0.60;;;22.70;43.10;;;;;;5009785;28;20437;-67
2021/05/29 01:57:50;;;;;;;0.65;0.65;;;22.70;43.00;;;;;;5010257;28;20025;-66
2021/05/29 02:00:18;;;;;;;0.95;0.70;;;22.70;43.00;;;;;;5011001;28;20042;-67
2021/05/29 02:02:44;;;;;;;0.60;0.60;;;22.70;42.90;;;;;;5009390;28;20512;-67
2021/05/29 02:05:31;;;;;;;0.75;0.63;;;22.70;42.90;;;;;;5008845;28;20125;-66
2021/05/29 02:08:02;;;;;;;0.60;0.47;;;22.70;42.90;;;;;;5009068;28;20396;-66
2021/05/29 02:10:30;;;;;;;0.63;0.63;;;22.70;42.80;;;;;;5008667;28;20029;-67
2021/05/29 02:12:59;;;;;;;0.55;0.55;;;22.70;42.80;;;;;;5008480;28;20115;-67
2021/05/29 02:15:30;;;;;;;0.40;0.40;;;22.70;42.70;;;;;;5010746;28;20037;-67
2021/05/29 02:17:58;;;;;;;0.40;0.40;;;22.70;42.80;;;;;;5008803;28;20060;-67
2021/05/29 02:20:49;;;;;;;0.50;0.50;;;22.70;42.80;;;;;;5009729;28;20783;-67
2021/05/29 02:23:18;;;;;;;0.60;0.60;;;22.70;42.70;;;;;;5008748;28;20034;-67
2021/05/29 02:25:45;;;;;;;0.60;0.60;;;22.70;42.70;;;;;;5008359;28;20100;-67
2021/05/29 02:28:11;;;;;;;0.52;0.52;;;22.70;42.60;;;;;;5011741;28;20022;-67
2021/05/29 02:30:38;;;;;;;0.60;0.50;;;22.70;42.60;;;;;;5009765;28;20038;-67
2021/05/29 02:33:05;;;;;;;0.40;0.40;;;22.70;42.60;;;;;;5011322;28;20370;-67
2021/05/29 02:35:31;;;;;;;0.50;0.50;;;22.70;42.60;;;;;;5010192;28;20504;-67
2021/05/29 02:37:57;;;;;;;0.50;0.50;;;22.70;42.60;;;;;;5006624;28;21155;-67
2021/05/29 02:40:23;;;;;;;0.75;0.75;;;22.70;42.50;;;;;;5007205;28;20381;-67
2021/05/29 02:42:49;;;;;;;0.45;0.45;;;22.70;42.50;;;;;;5006388;28;20484;-67
2021/05/29 02:45:16;;;;;;;0.57;0.55;;;22.70;42.50;;;;;;5009216;28;20496;-66
2021/05/29 02:47:41;;;;;;;0.70;0.70;;;22.70;42.50;;;;;;5008555;28;20255;-66
2021/05/29 02:50:08;;;;;;;0.40;0.40;;;22.70;42.40;;;;;;5009141;28;20030;-67
2021/05/29 02:52:34;;;;;;;0.47;0.47;;;22.60;42.40;;;;;;5007612;28;20608;-67
2021/05/29 02:55:00;;;;;;;0.60;0.60;;;22.70;42.40;;;;;;5011126;28;20029;-66
2021/05/29 02:57:26;;;;;;;0.70;0.70;;;22.70;42.40;;;;;;5007272;28;20025;-67
2021/05/29 02:59:51;;;;;;;0.40;0.40;;;22.70;42.40;;;;;;5011009;28;20116;-66
2021/05/29 03:02:17;;;;;;;0.60;0.50;;;22.60;42.30;;;;;;5009183;28;20125;-67
2021/05/29 03:04:43;;;;;;;0.45;0.45;;;22.60;42.30;;;;;;5009469;28;20048;-67
2021/05/29 03:07:09;;;;;;;1.33;0.57;;;22.60;42.40;;;;;;5009297;28;20044;-66
2021/05/29 03:09:34;;;;;;;0.40;0.40;;;22.60;42.40;;;;;;5006424;28;20026;-67
2021/05/29 03:12:00;;;;;;;0.30;0.30;;;22.60;42.30;;;;;;5007144;28;20150;-67
2021/05/29 03:14:27;;;;;;;0.50;0.50;;;22.60;42.30;;;;;;5006742;28;20026;-67
2021/05/29 03:16:53;;;;;;;0.40;0.40;;;22.60;42.30;;;;;;5008867;28;20029;-67
2021/05/29 03:19:19;;;;;;;0.43;0.43;;;22.60;42.30;;;;;;5009487;28;20037;-67
2021/05/29 03:21:45;;;;;;;0.50;0.50;;;22.60;42.20;;;;;;5008479;28;20360;-67
2021/05/29 03:24:13;;;;;;;0.45;0.45;;;22.60;42.20;;;;;;5011709;28;20522;-67
2021/05/29 03:26:39;;;;;;;2.28;0.40;;;22.60;42.20;;;;;;5013842;28;20400;-66
2021/05/29 03:29:05;;;;;;;0.60;0.60;;;22.60;42.10;;;;;;5014919;28;20048;-67
2021/05/29 03:31:32;;;;;;;0.40;0.40;;;22.60;42.10;;;;;;5015727;28;20045;-67
2021/05/29 03:33:58;;;;;;;0.40;0.40;;;22.60;42.20;;;;;;5012583;28;20133;-66
2021/05/29 03:36:24;;;;;;;0.63;0.63;;;22.60;42.20;;;;;;5014510;28;20108;-66
2021/05/29 03:38:50;;;;;;;3.35;0.60;;;22.60;42.20;;;;;;5011445;28;20676;-67
2021/05/29 03:41:16;;;;;;;0.55;0.40;;;22.60;42.20;;;;;;5011440;28;20034;-67
2021/05/29 03:43:41;;;;;;;0.52;0.40;;;22.60;42.20;;;;;;5011775;28;20054;-67
2021/05/29 03:46:07;;;;;;;0.40;0.40;;;22.60;42.20;;;;;;5011918;28;20072;-67
2021/05/29 03:48:33;;;;;;;0.43;0.43;;;22.60;42.10;;;;;;5008935;28;20029;-67
2021/05/29 03:51:00;;;;;;;0.47;0.47;;;22.60;42.10;;;;;;5011498;28;20388;-67
2021/05/29 03:53:26;;;;;;;0.52;0.50;;;22.60;42.00;;;;;;5009577;28;20030;-67
2021/05/29 03:55:52;;;;;;;0.65;0.45;;;22.60;42.10;;;;;;5010656;28;20067;-66
2021/05/29 03:58:18;;;;;;;0.30;0.30;;;22.60;42.10;;;;;;5010833;28;20084;-66
2021/05/29 04:00:44;;;;;;;0.80;0.50;;;22.60;42.00;;;;;;5014022;28;20588;-67
2021/05/29 04:03:10;;;;;;;0.55;0.50;;;22.60;42.10;;;;;;5011063;28;20424;-67
2021/05/29 04:05:36;;;;;;;0.50;0.50;;;22.60;42.20;;;;;;5011899;28;20057;-67
2021/05/29 04:08:02;;;;;;;0.50;0.50;;;22.60;42.10;;;;;;5008748;28;20055;-67
2021/05/29 04:10:29;;;;;;;0.50;0.50;;;22.60;42.10;;;;;;5010333;28;20042;-67
2021/05/29 04:12:56;;;;;;;0.50;0.50;;;22.50;41.90;;;;;;5011903;28;20384;-67
2021/05/29 04:15:22;;;;;;;0.50;0.50;;;22.50;41.90;;;;;;5009139;28;20029;-66
2021/05/29 04:17:48;;;;;;;0.40;0.40;;;22.50;41.90;;;;;;5009264;28;20033;-67
2021/05/29 04:20:20;;;;;;;0.30;0.30;;;22.50;41.90;;;;;;5011953;28;20492;-67
2021/05/29 04:22:46;;;;;;;0.60;0.60;;;22.50;41.90;;;;;;5009712;28;20642;-66
2021/05/29 04:25:16;;;;;;;0.60;0.60;;;22.50;41.90;;;;;;5010628;28;20040;-67
2021/05/29 04:27:41;;;;;;;0.50;0.50;;;22.50;42.00;;;;;;5009527;28;20072;-66
2021/05/29 04:30:14;;;;;;;0.32;0.32;;;22.50;41.80;;;;;;5013681;28;20120;-66
2021/05/29 04:32:40;;;;;;;0.40;0.40;;;22.50;41.90;;;;;;5011501;28;20912;-66
2021/05/29 04:35:06;;;;;;;0.40;0.40;;;22.60;41.90;;;;;;5012979;28;20037;-66
2021/05/29 04:37:32;;;;;;;0.52;0.45;;;22.60;41.90;;;;;;5012837;28;20033;-66
2021/05/29 04:39:58;;;;;;;0.52;0.52;;;22.50;41.90;;;;;;5013550;28;20028;-67
2021/05/29 04:42:24;;;;;;;0.40;0.40;;;22.50;41.80;;;;;;5015665;28;20088;-67
2021/05/29 04:44:50;;;;;;;0.68;0.40;;;22.50;41.90;;;;;;5012021;28;20026;-66
2021/05/29 04:47:15;;;;;;;1.10;0.50;;;22.50;41.90;;;;;;5011188;28;20033;-68
2021/05/29 04:49:41;;;;;;;0.77;0.60;;;22.50;41.90;;;;;;5006538;28;20625;-68
2021/05/29 04:52:07;;;;;;;3.80;0.82;;;22.50;41.90;;;;;;5011574;28;20464;-65
2021/05/29 04:54:33;;;;;;;5.72;1.00;;;22.50;41.90;;;;;;5008708;28;20037;-66
2021/05/29 04:56:59;;;;;;;1.55;0.63;;;22.60;41.90;;;;;;5006731;28;20954;-66
2021/05/29 04:59:24;;;;;;;2.90;0.77;;;22.60;41.80;;;;;;5008623;28;20424;-66
2021/05/29 05:01:50;;;;;;;6.22;1.00;;;22.60;41.90;;;;;;5009685;28;20029;-66
2021/05/29 05:04:17;;;;;;;2.65;0.80;;;22.60;41.90;;;;;;5007168;28;20389;-65
2021/05/29 05:06:43;;;;;;;1.00;0.60;;;22.60;41.80;;;;;;5009343;28;20698;-66
2021/05/29 05:09:09;;;;;;;0.60;0.60;;;22.60;41.90;;;;;;5005206;28;20112;-66
2021/05/29 05:11:36;;;;;;;2.75;0.73;;;22.60;41.90;;;;;;5007702;28;20038;-68
2021/05/29 05:14:03;;;;;;;1.70;0.70;;;22.60;41.90;;;;;;5011044;28;20684;-68
2021/05/29 05:16:29;;;;;;;0.63;0.63;;;22.60;41.90;;;;;;5008400;28;20111;-69
2021/05/29 05:18:55;;;;;;;2.85;1.27;;;22.60;41.90;;;;;;5006689;28;20104;-66
2021/05/29 05:21:21;;;;;;;4.40;0.70;;;22.60;41.90;;;;;;5013814;28;20033;-67
2021/05/29 05:23:50;;;;;;;2.58;0.65;;;22.60;41.90;;;;;;5005343;28;20144;-68
2021/05/29 05:26:17;;;;;;;2.33;0.75;;;22.60;41.90;;;;;;5009295;28;20377;-65
2021/05/29 05:28:43;;;;;;;2.67;1.00;;;22.70;41.80;;;;;;5007443;28;20501;-65
2021/05/29 05:31:09;;;;;;;5.35;0.70;;;22.70;41.70;;;;;;5009422;28;20029;-65
2021/05/29 05:33:40;;;;;;;3.53;0.80;;;22.70;41.80;;;;;;5006711;28;21549;-66
2021/05/29 05:36:09;;;;;;;2.92;1.08;;;22.70;41.80;;;;;;5007450;28;20068;-66
2021/05/29 05:38:36;;;;;;;0.73;0.73;;;22.70;42.10;;;;;;5005423;28;20036;-66
2021/05/29 05:41:03;;;;;;;7.40;1.10;;;22.70;41.80;;;;;;5009547;28;20058;-67
2021/05/29 05:43:29;;;;;;;2.45;0.90;;;22.70;41.80;;;;;;5007497;28;20478;-66
2021/05/29 05:45:55;;;;;;;6.65;2.25;;;22.70;42.00;;;;;;5008876;28;20053;-69
2021/05/29 05:48:21;;;;;;;13.57;5.20;;;22.70;42.00;;;;;;5007830;28;20064;-67
2021/05/29 05:50:56;;;;;;;18.90;7.15;;;22.70;41.90;;;;;;5010061;28;20034;-67
2021/05/29 05:53:27;;;;;;;334.55;149.88;;;22.80;42.30;;;;;;5007018;28;20042;-67
2021/05/29 05:56:03;;;;;;;547.78;264.65;;;22.80;42.30;;;;;;5012250;28;20048;-67
2021/05/29 05:58:31;;;;;;;556.38;282.02;;;22.80;42.60;;;;;;5005837;28;20527;-68
2021/05/29 06:00:57;;;;;;;562.13;281.83;;;22.80;42.80;;;;;;5010226;28;20032;-68
2021/05/29 06:03:23;;;;;;;575.53;292.17;;;22.80;42.90;;;;;;5011101;28;20036;-68
2021/05/29 06:05:50;;;;;;;565.58;301.85;;;22.80;43.10;;;;;;5015101;28;20041;-68
2021/05/29 06:08:16;;;;;;;552.33;284.70;;;22.80;43.20;;;;;;5013959;28;20045;-70
2021/05/29 06:10:42;;;;;;;538.17;280.85;;;22.80;43.40;;;;;;5014756;28;20456;-70
2021/05/29 06:13:13;;;;;;;490.80;250.20;;;22.80;43.60;;;;;;5015114;28;20032;-71
2021/05/29 06:21:16;;;;;;;314.65;152.88;;;22.90;44.00;;;;;;5013247;28;20095;-74
2021/05/29 06:23:41;;;;;;;303.20;149.25;;;22.90;43.10;;;;;;5013834;28;20037;-71
2021/05/29 06:26:07;;;;;;;303.05;144.65;;;22.90;43.60;;;;;;5011853;28;20591;-70
2021/05/29 06:28:33;;;;;;;272.75;128.75;;;22.90;43.60;;;;;;5010454;28;20500;-70
2021/05/29 06:30:59;;;;;;;248.55;118.97;;;22.90;43.60;;;;;;5011659;28;20025;-71
2021/05/29 06:33:24;;;;;;;239.57;113.63;;;22.90;43.50;;;;;;5012804;28;20507;-70
2021/05/29 06:35:50;;;;;;;217.00;103.97;;;22.90;44.10;;;;;;5012498;28;20030;-71
2021/05/29 06:38:16;;;;;;;184.95;92.05;;;23.00;43.40;;;;;;5010661;28;20025;-69
2021/05/29 06:40:41;;;;;;;119.60;55.47;;;23.00;43.30;;;;;;5014645;28;20504;-71
2021/05/29 06:43:07;;;;;;;91.72;44.13;;;23.00;41.10;;;;;;5013766;28;20030;-71
2021/05/29 06:45:33;;;;;;;126.45;56.97;;;22.80;39.70;;;;;;5014302;28;20529;-69
2021/05/29 06:47:59;;;;;;;111.25;53.10;;;22.70;41.80;;;;;;5013104;28;20064;-74
2021/05/29 06:50:25;;;;;;;114.05;52.60;;;22.70;41.90;;;;;;5013169;28;20494;-72
2021/05/29 06:52:56;;;;;;;109.18;49.33;;;22.70;41.70;;;;;;5013872;28;20026;-73
2021/05/29 07:00:50;;;;;;;78.45;37.38;;;22.70;41.70;;;;;;5014698;28;20068;-74
2021/05/29 07:03:17;;;;;;;80.15;37.40;;;22.80;41.70;;;;;;5013756;28;20100;-67
2021/05/29 07:05:42;;;;;;;72.20;36.28;;;22.80;41.70;;;;;;5016047;28;20053;-70
2021/05/29 07:08:10;;;;;;;78.45;33.83;;;22.80;41.80;;;;;;5014439;28;20045;-65
2021/05/29 07:10:36;;;;;;;67.63;31.02;;;22.80;41.70;;;;;;5013539;28;20038;-65
2021/05/29 07:13:01;;;;;;;62.35;30.45;;;22.80;41.70;;;;;;5012741;28;20030;-64
2021/05/29 07:15:33;;;;;;;13.40;6.40;;;22.80;41.80;;;;;;5014206;28;20033;-68
2021/05/29 07:18:04;;;;;;;12.45;4.63;;;21.10;35.60;;;;;;5012116;28;20029;-69
2021/05/29 07:20:31;;;;;;;5.22;2.00;;;19.70;38.10;;;;;;5016263;28;20040;-70
2021/05/29 07:22:58;;;;;;;3.85;2.25;;;19.20;37.90;;;;;;5012739;28;20036;-69
2021/05/29 07:25:24;;;;;;;9.07;2.80;;;18.60;39.50;;;;;;5012530;28;20040;-67
2021/05/29 07:27:50;;;;;;;3.47;1.83;;;18.50;40.50;;;;;;5014319;28;20050;-65
2021/05/29 07:30:16;;;;;;;5.03;1.52;;;18.50;39.70;;;;;;5012106;28;20514;-65
2021/05/29 07:32:42;;;;;;;4.82;1.77;;;18.30;39.00;;;;;;5013188;28;20181;-66
2021/05/29 07:35:08;;;;;;;7.40;1.45;;;18.00;39.00;;;;;;5013272;28;20203;-66
2021/05/29 07:37:36;;;;;;;3.63;1.60;;;18.00;39.60;;;;;;5012336;28;20432;-65
2021/05/29 07:40:02;;;;;;;3.35;1.90;;;18.10;39.50;;;;;;5011898;28;20387;-65
2021/05/29 07:42:27;;;;;;;2.55;1.65;;;18.20;40.70;;;;;;5013714;28;20116;-66
2021/05/29 07:44:53;;;;;;;4.50;1.92;;;18.30;39.50;;;;;;5011476;28;20120;-66
2021/05/29 07:47:19;;;;;;;4.28;1.50;;;18.90;41.20;;;;;;5012186;28;20037;-66
2021/05/29 07:49:45;;;;;;;4.00;2.15;;;20.00;39.70;;;;;;5013363;28;20115;-65
2021/05/29 07:52:11;;;;;;;4.22;1.88;;;20.70;38.90;;;;;;5011770;28;20065;-66
2021/05/29 07:54:38;;;;;;;5.03;2.50;;;21.10;38.40;;;;;;5010786;28;20026;-66
2021/05/29 07:57:04;;;;;;;4.55;2.55;;;21.40;37.80;;;;;;5010092;28;20029;-66
2021/05/29 07:59:29;;;;;;;6.88;3.50;;;21.70;37.80;;;;;;5011453;28;20041;-65
2021/05/29 08:01:55;;;;;;;4.47;2.58;;;21.80;37.80;;;;;;5012711;28;20075;-64
2021/05/29 08:04:21;;;;;;;8.10;3.80;;;21.90;37.80;;;;;;5010720;28;20021;-64
2021/05/29 08:06:47;;;;;;;7.55;3.85;;;22.00;37.80;;;;;;5014291;28;20072;-65
2021/05/29 08:09:15;;;;;;;6.60;3.38;;;22.10;37.90;;;;;;5011723;28;20044;-67
2021/05/29 08:11:41;;;;;;;7.07;3.80;;;22.10;38.10;;;;;;5015217;28;20079;-67
2021/05/29 08:14:09;;;;;;;6.90;3.58;;;22.20;38.20;;;;;;5017411;28;20611;-65
2021/05/29 08:16:35;;;;;;;9.80;3.45;;;22.20;38.20;;;;;;5009426;28;20041;-67
2021/05/29 08:19:01;;;;;;;8.90;3.88;;;22.30;38.30;;;;;;5015707;28;20030;-70
2021/05/29 08:21:29;;;;;;;4.53;2.25;;;22.30;38.50;;;;;;5016187;28;20026;-73
2021/05/29 08:23:55;;;;;;;2.70;1.80;;;21.50;35.20;;;;;;5013658;28;20025;-73
2021/05/29 08:26:20;;;;;;;2.53;1.60;;;20.60;36.50;;;;;;5013030;28;20045;-66
2021/05/29 08:28:46;;;;;;;2.17;1.48;;;20.00;37.80;;;;;;5012173;28;20018;-67
2021/05/29 08:31:13;;;;;;;3.42;1.55;;;19.40;37.70;;;;;;5011661;28;20671;-66
2021/05/29 08:33:40;;;;;;;3.65;1.92;;;19.20;39.70;;;;;;5008811;28;20025;-67
2021/05/29 08:36:07;;;;;;;2.85;1.30;;;19.30;38.50;;;;;;5012301;28;20029;-70
2021/05/29 08:38:33;;;;;;;4.72;1.83;;;19.30;39.20;;;;;;5008752;28;20567;-69
2021/05/29 08:40:59;;;;;;;4.68;2.22;;;19.20;39.60;;;;;;5012801;28;20068;-69
2021/05/29 08:43:25;;;;;;;5.82;1.67;;;19.10;39.10;;;;;;5011530;28;20117;-70
2021/05/29 08:45:51;;;;;;;4.45;1.45;;;19.10;39.20;;;;;;5012586;28;20045;-70
2021/05/29 08:48:17;;;;;;;4.43;1.50;;;19.00;39.90;;;;;;5010681;28;20314;-64
2021/05/29 08:53:27;;;;;;;3.85;1.85;;;19.00;39.00;;;;;;5033717;28;20056;-69
2021/05/29 08:55:54;;;;;;;4.65;1.92;;;18.90;39.80;;;;;;5034066;28;20349;-68
2021/05/29 08:58:19;;;;;;;3.63;2.20;;;19.00;39.70;;;;;;5033994;28;20056;-68
2021/05/29 09:00:45;;;;;;;3.88;1.63;;;19.00;39.70;;;;;;5038992;28;20503;-68
2021/05/29 09:03:11;;;;;;;3.45;1.30;;;19.10;38.00;;;;;;5037406;28;20236;-69
2021/05/29 09:05:41;;;;;;;2.47;1.33;;;19.00;37.80;;;;;;5034245;28;20602;-69
2021/05/29 09:08:12;;;;;;;3.00;1.42;;;19.20;38.90;;;;;;5036504;28;20037;-69
2021/05/29 09:10:43;;;;;;;3.72;1.48;;;19.20;38.80;;;;;;5034669;28;20044;-67
2021/05/29 09:13:14;;;;;;;4.53;2.15;;;19.20;39.90;;;;;;5033778;28;20017;-71
2021/05/29 09:15:57;;;;;;;6.57;1.70;;;19.60;38.00;;;;;;5033645;28;20033;-63
2021/05/29 09:18:31;;;;;;;3.83;1.58;;;19.70;38.40;;;;;;5046454;28;20104;-64
2021/05/29 09:21:18;;;;;;;3.75;1.10;;;20.10;36.70;;;;;;5033178;28;20086;-62
2021/05/29 09:23:50;;;;;;;3.75;1.30;;;20.10;35.60;;;;;;5030933;28;20059;-62
2021/05/29 09:26:16;;;;;;;6.03;1.23;;;20.00;35.90;;;;;;5033968;28;20041;-62
2021/05/29 09:28:43;;;;;;;10.98;1.65;;;19.90;35.50;;;;;;5039563;28;20033;-62
2021/05/29 09:31:16;;;;;;;1.30;1.02;;;19.90;36.20;;;;;;5031737;28;20029;-62
2021/05/29 09:33:44;;;;;;;3.40;1.20;;;20.00;35.70;;;;;;5034756;28;20032;-61
2021/05/29 09:36:15;;;;;;;5.22;1.02;;;20.10;35.20;;;;;;5030517;28;20021;-60
2021/05/29 09:38:50;;;;;;;2.00;1.20;;;19.90;36.30;;;;;;5031598;28;20103;-61
2021/05/29 09:41:34;;;;;;;3.47;1.20;;;20.10;36.00;;;;;;5033572;28;20028;-61
2021/05/29 09:44:04;;;;;;;1.40;1.05;;;20.10;35.00;;;;;;5036515;28;20785;-61
2021/05/29 09:46:30;;;;;;;1.83;0.90;;;20.10;34.60;;;;;;5033470;28;20041;-61
2021/05/29 09:49:01;;;;;;;2.05;0.82;;;20.10;34.30;;;;;;5034632;28;20025;-62
2021/05/29 09:51:33;;;;;;;8.25;1.85;;;20.10;35.30;;;;;;5030950;28;20033;-61
2021/05/29 09:54:07;;;;;;;4.78;0.93;;;20.30;35.10;;;;;;5030979;28;20029;-60
2021/05/29 09:56:43;;;;;;;2.37;0.90;;;20.60;35.50;;;;;;5038308;28;20021;-61
2021/05/29 09:59:19;;;;;;;2.13;1.00;;;20.90;35.40;;;;;;5034593;28;20327;-60
2021/05/29 10:01:53;;;;;;;1.77;0.93;;;21.20;35.40;;;;;;5033899;28;20025;-61
2021/05/29 10:04:52;;;;;;;1.27;1.17;;;21.40;35.20;;;;;;5033809;28;20079;-61
2021/05/29 10:07:16;;;;;;;4.68;1.05;;;21.50;35.40;;;;;;5032961;28;20102;-61
2021/05/29 10:09:43;;;;;;;3.17;1.02;;;21.60;35.10;;;;;;4971994;28;20496;-61
2021/05/29 10:12:10;;;;;;;1.98;0.90;;;21.60;34.90;;;;;;5035582;28;20034;-63
2021/05/29 10:14:37;;;;;;;3.97;0.98;;;21.60;34.80;;;;;;5032467;28;20427;-61
2021/05/29 10:17:05;;;;;;;1.75;1.02;;;21.60;35.00;;;;;;5033505;28;20033;-63
2021/05/29 10:19:32;;;;;;;3.03;0.80;;;21.50;34.70;;;;;;5032590;28;20383;-62
2021/05/29 10:22:12;;;;;;;4.10;1.00;;;21.60;35.40;;;;;;5034431;28;20036;-61
2021/05/29 10:24:39;;;;;;;5.15;0.90;;;21.70;35.20;;;;;;5032936;28;20419;-62
2021/05/29 10:27:14;;;;;;;4.53;1.05;;;21.80;35.20;;;;;;5031792;28;20106;-61
2021/05/29 10:29:40;;;;;;;5.18;1.20;;;22.00;35.70;;;;;;5032728;28;20056;-59
2021/05/29 10:32:19;;;;;;;12.88;1.42;;;21.60;34.70;;;;;;5032496;28;20484;-65
2021/05/29 10:34:53;;;;;;;2.53;0.90;;;21.50;34.80;;;;;;5035268;28;20029;-63
2021/05/29 10:37:34;;;;;;;3.25;1.00;;;21.50;35.50;;;;;;5032040;28;20030;-64
2021/05/29 10:40:18;;;;;;;3.97;1.05;;;21.60;35.70;;;;;;5025288;28;20106;-65
2021/05/29 10:42:46;;;;;;;2.95;1.13;;;21.70;35.20;;;;;;5033598;28;20029;-63
2021/05/29 10:45:16;;;;;;;2.22;1.23;;;21.70;35.50;;;;;;5032476;28;20035;-63
2021/05/29 10:48:02;;;;;;;2.75;1.50;;;21.60;35.20;;;;;;5031511;28;20495;-64
2021/05/29 10:50:56;;;;;;;1.92;1.10;;;21.60;35.30;;;;;;5030225;28;20037;-63
2021/05/29 10:53:44;;;;;;;3.85;1.25;;;21.60;35.80;;;;;;5029365;28;20128;-62
2021/05/29 10:59:38;;;;;;;5.07;1.17;;;21.40;34.80;;;;;;5031637;28;20137;-62
2021/05/29 11:02:04;;;;;;;4.03;1.30;;;21.40;35.50;;;;;;5029773;28;20041;-61
2021/05/29 11:04:32;;;;;;;2.85;1.27;;;21.50;35.90;;;;;;5029296;28;20487;-60
2021/05/29 11:07:20;;;;;;;1.60;1.10;;;21.50;35.00;;;;;;5030770;28;20395;-61
2021/05/29 11:09:48;;;;;;;3.45;1.20;;;21.60;35.20;;;;;;5027856;28;20073;-61
2021/05/29 11:12:14;;;;;;;2.20;1.35;;;21.60;35.30;;;;;;5028405;28;20056;-61
2021/05/29 11:14:48;;;;;;;2.35;0.90;;;21.50;35.50;;;;;;5029526;28;20033;-61
2021/05/29 11:17:18;;;;;;;5.45;1.23;;;21.50;35.10;;;;;;5032765;28;20107;-61
2021/05/29 11:20:21;;;;;;;1.98;1.02;;;21.50;35.70;;;;;;5030778;28;20022;-62
2021/05/29 11:22:50;;;;;;;2.00;1.00;;;21.60;36.00;;;;;;5029434;28;20013;-62
2021/05/29 11:25:21;;;;;;;2.35;1.10;;;21.40;34.50;;;;;;5037018;28;20033;-61
2021/05/29 11:27:49;;;;;;;3.92;1.13;;;21.40;34.70;;;;;;5030813;28;20036;-58
2021/05/29 11:30:20;;;;;;;2.25;0.98;;;21.60;34.90;;;;;;5030024;28;20030;-60
2021/05/29 11:33:12;;;;;;;1.52;0.85;;;21.60;35.00;;;;;;5029961;28;20510;-59
2021/05/29 11:35:49;;;;;;;3.22;1.30;;;21.50;35.70;;;;;;5024710;28;20087;-59
2021/05/29 11:38:35;;;;;;;2.03;1.02;;;21.60;35.50;;;;;;5025307;28;20128;-59
2021/05/29 11:41:12;;;;;;;1.42;1.05;;;21.60;34.60;;;;;;5026325;28;20049;-60
2021/05/29 11:43:53;;;;;;;3.65;1.38;;;21.50;34.50;;;;;;5030993;28;20033;-60
2021/05/29 11:46:27;;;;;;;5.40;1.20;;;21.40;35.20;;;;;;5028251;28;20045;-59
2021/05/29 11:49:06;;;;;;;3.75;1.35;;;21.40;35.20;;;;;;5031139;28;20021;-59
2021/05/29 11:51:41;;;;;;;2.35;1.20;;;21.50;35.00;;;;;;5026709;28;20117;-60
2021/05/29 11:54:08;;;;;;;;;;;21.70;35.70;;;;;;5027105;28;20026;-59
2021/05/29 11:56:35;;;;;;;3.80;1.40;;;21.80;35.10;;;;;;5026849;28;19913;-60
2021/05/29 11:59:04;;;;;;;3.05;1.70;;;22.00;35.10;;;;;;5029522;28;20295;-59
2021/05/29 12:01:32;;;;;;;1.52;1.05;;;22.10;34.60;;;;;;5027745;28;20033;-59
2021/05/29 12:04:03;;;;;;;2.80;1.35;;;21.90;33.40;;;;;;5031848;28;20048;-59
2021/05/29 12:07:02;;;;;;;2.83;1.30;;;21.80;34.50;;;;;;5032694;28;20415;-59
2021/05/29 12:09:36;;;;;;;4.95;1.30;;;21.90;35.30;;;;;;5012400;28;20041;-60
2021/05/29 12:12:02;;;;;;;4.43;1.30;;;21.90;34.90;;;;;;5034073;28;20479;-59
2021/05/29 12:14:37;;;;;;;2.55;1.15;;;21.90;33.30;;;;;;5034063;28;20028;-59
2021/05/29 12:17:33;;;;;;;6.35;1.52;;;22.00;34.90;;;;;;5032500;28;20021;-60
2021/05/29 12:20:00;;;;;;;4.28;1.60;;;22.20;34.70;;;;;;5033746;28;20043;-59
2021/05/29 12:22:29;;;;;;;2.95;1.60;;;22.20;33.90;;;;;;5031374;28;20029;-59
2021/05/29 12:25:09;;;;;;;1.65;1.33;;;22.20;33.90;;;;;;5031295;28;20030;-59
2021/05/29 12:27:43;;;;;;;3.30;1.40;;;22.00;33.40;;;;;;5032840;28;20553;-59
2021/05/29 12:30:16;;;;;;;2.10;1.27;;;21.80;34.40;;;;;;5033590;28;20026;-59
2021/05/29 12:32:48;;;;;;;2.25;1.35;;;21.90;34.00;;;;;;5030773;28;20036;-60
2021/05/29 12:35:33;;;;;;;1.58;1.10;;;22.00;33.90;;;;;;5033453;28;20143;-60
2021/05/29 12:38:19;;;;;;;6.65;1.92;;;22.10;34.30;;;;;;5031410;28;20022;-60
2021/05/29 12:41:07;;;;;;;4.18;1.23;;;22.20;34.10;;;;;;5031657;28;20543;-60
2021/05/29 12:43:33;;;;;;;5.65;2.08;;;22.30;33.50;;;;;;5028957;28;20481;-59
2021/05/29 12:45:59;;;;;;;37.00;10.27;;;22.40;33.40;;;;;;5031666;28;20045;-60
2021/05/29 12:48:25;;;;;;;11.90;3.75;;;22.50;33.90;;;;;;5030271;28;20538;-59
2021/05/29 12:53:36;;;;;;;5.50;2.22;;;22.30;33.10;;;;;;5029374;28;20036;-60
2021/05/29 12:56:09;;;;;;;6.57;2.03;;;22.30;33.80;;;;;;5030889;28;20022;-59
2021/05/29 12:58:35;;;;;;;4.90;1.83;;;22.40;33.50;;;;;;5031477;28;20029;-59
2021/05/29 13:01:26;;;;;;;2.85;1.92;;;22.50;33.50;;;;;;5028222;28;20045;-59
2021/05/29 13:09:44;;;;;;;4.50;1.70;;;22.60;33.00;;;;;;5034627;28;20036;-58
2021/05/29 13:12:14;;;;;;;2.90;1.25;;;22.70;32.90;;;;;;5032995;28;20060;-59
2021/05/29 13:14:42;;;;;;;2.97;1.40;;;22.70;32.60;;;;;;5028953;28;20208;-59
2021/05/29 13:17:09;;;;;;;4.22;1.65;;;22.80;33.20;;;;;;5031839;28;20026;-58
2021/05/29 13:19:52;;;;;;;7.22;5.22;;;22.90;32.90;;;;;;5030331;28;20036;-59